Terminal Aerodrome Forecast
Issued by NWS Tampa Bay Area, FL

Home | Current Version | Previous Version | Text Only | Print | Product List | Glossary On
Versions: 1 2 3 4 5 6 7 8 9 10 11 12 13 14 15 16
000
FTUS42 KTBW 282333
TAFSRQ
TAF
KSRQ 282333Z 2900/2924 34012KT P6SM SCT250
     FM290200 33008KT P6SM SCT250
     FM290400 36005KT P6SM SCT250
     FM290900 03005KT P6SM SCT250
     FM291400 02011KT P6SM SCT250=

USA.gov is the U.S. government's official web portal to all federal, state and local government web resources and services.